.
WxDataArchive / Data Records for 2013-04-07
2013-04-06 April 2013 2013-04-08

Data Records for Sunday, 07 April 2013

Time	Temp	Chill	HIndex	Humid	Dewpt	 Wind 	HiWind	WindDir	Rain 	Barom 
-----	----	-----	------	-----	-----	------	------	-------	-----	----- 
00:00	58.9	58.9	58.9	42	35.9	1	4	90	0.00	29.763 
00:05	59.0	59.0	59.0	42	35.9	1	5	225	0.00	29.763 
00:10	59.3	59.3	59.3	41	35.6	1	9	45	0.00	29.763 
00:15	59.6	59.6	59.6	41	35.9	2	9	248	0.00	29.760 
00:20	59.8	59.8	59.8	41	36.1	2	10	248	0.00	29.760 
00:25	59.9	59.9	59.9	41	36.1	1	5	248	0.00	29.760 
00:30	60.1	60.1	60.1	40	35.7	2	7	270	0.00	29.745 
00:35	60.2	60.2	60.2	40	35.8	2	9	68	0.00	29.745 
00:40	60.2	60.2	60.2	40	35.8	3	10	90	0.00	29.745 
00:45	60.1	60.1	60.1	40	35.7	2	5	45	0.00	29.740 
00:50	60.1	60.1	60.1	40	35.7	3	7	68	0.00	29.740 
00:55	59.9	59.9	59.9	40	35.5	2	5	68	0.00	29.740 
01:00	59.9	59.9	59.9	41	36.1	2	6	90	0.00	29.729 
01:05	59.8	59.8	59.8	41	36.1	2	6	90	0.00	29.729 
01:10	59.8	59.8	59.8	41	36.1	1	7	68	0.00	29.729 
01:15	59.9	59.9	59.9	40	35.5	2	6	68	0.00	29.721 
01:20	60.1	60.1	60.1	40	35.7	1	5	68	0.00	29.721 
01:25	60.2	60.2	60.2	40	35.8	2	5	248	0.00	29.721 
01:30	60.4	60.4	60.4	39	35.3	2	10	248	0.00	29.712 
01:35	60.5	60.5	60.5	39	35.4	2	6	248	0.00	29.712 
01:40	60.7	60.7	60.7	39	35.6	2	6	225	0.00	29.712 
01:45	60.9	60.9	60.9	38	35.1	2	7	270	0.00	29.711 
01:50	61.0	61.0	61.0	39	35.9	1	5	248	0.00	29.711 
01:55	60.9	60.9	60.9	39	35.8	2	6	248	0.00	29.711 
02:00	60.9	60.9	60.9	39	35.8	2	5	270	0.00	29.709 
02:05	60.9	60.9	60.9	39	35.8	2	14	225	0.00	29.709 
02:10	60.9	60.9	60.9	39	35.8	3	8	248	0.00	29.709 
02:15	61.0	61.0	61.0	39	35.9	3	10	248	0.00	29.703 
02:20	60.9	60.9	60.9	39	35.8	2	7	248	0.00	29.703 
02:25	60.7	60.7	60.7	39	35.6	2	9	248	0.00	29.703 
02:30	60.7	60.7	60.7	39	35.6	2	6	248	0.00	29.694 
02:35	60.5	60.5	60.5	40	36.1	2	7	248	0.00	29.694 
02:40	60.4	60.4	60.4	40	36.0	2	7	248	0.00	29.694 
02:45	60.4	60.4	60.4	40	36.0	2	7	248	0.00	29.695 
02:50	60.4	60.4	60.4	40	36.0	2	7	248	0.00	29.695 
02:55	60.4	60.4	60.4	46	39.5	2	10	248	0.00	29.695 
03:00	59.9	59.9	59.9	46	39.1	3	7	248	0.00	29.718 
03:05	59.9	59.9	59.9	44	37.9	3	9	248	0.00	29.718 
03:10	59.9	59.9	59.9	46	39.1	4	10	248	0.00	29.718 
03:15	60.1	60.1	60.1	46	39.2	4	12	248	0.00	29.723 
03:20	59.9	59.9	59.9	50	41.2	3	10	248	0.00	29.723 
03:25	59.0	59.0	59.0	53	41.9	3	12	248	0.01	29.723 
03:30	58.1	58.1	58.1	55	42.0	3	7	248	0.00	29.707 
03:35	57.8	57.8	57.8	56	42.2	2	9	248	0.00	29.707 
03:40	57.5	57.5	57.5	57	42.4	2	6	248	0.00	29.707 
03:45	57.2	57.2	57.2	58	42.6	2	6	248	0.00	29.702 
03:50	56.9	56.9	56.9	58	42.3	3	13	248	0.00	29.702 
03:55	57.2	57.2	57.2	56	41.6	3	10	248	0.00	29.702 
04:00	57.3	57.3	57.3	55	41.3	2	5	248	0.00	29.690 
04:05	57.5	57.5	57.5	54	41.0	2	6	248	0.00	29.690 
04:10	57.6	57.6	57.6	54	41.1	2	9	248	0.00	29.690 
04:15	57.8	57.8	57.8	53	40.8	3	10	248	0.00	29.680 
04:20	57.8	57.8	57.8	52	40.3	3	9	248	0.00	29.680 
04:25	57.8	57.8	57.8	53	40.8	2	6	248	0.00	29.680 
04:30	57.5	57.5	57.5	53	40.5	2	5	248	0.00	29.678 
04:35	57.2	57.2	57.2	54	40.7	1	9	248	0.00	29.678 
04:40	57.0	57.0	57.0	54	40.5	1	4	248	0.00	29.678 
04:45	56.7	56.7	56.7	54	40.2	1	4	248	0.00	29.675 
04:50	56.6	56.6	56.6	54	40.1	1	6	248	0.00	29.675 
04:55	56.6	56.6	56.6	54	40.1	1	5	248	0.00	29.675 
05:00	56.5	56.5	56.5	54	40.1	1	3	248	0.00	29.675 
05:05	56.5	56.5	56.5	53	39.6	1	5	248	0.00	29.675 
05:10	56.6	56.6	56.6	52	39.2	2	7	248	0.00	29.675 
05:15	56.6	56.6	56.6	53	39.7	1	7	248	0.00	29.673 
05:20	56.7	56.7	56.7	52	39.3	2	6	248	0.00	29.673 
05:25	57.0	57.0	57.0	52	39.5	3	9	248	0.00	29.673 
05:30	57.0	57.0	57.0	52	39.5	2	9	248	0.00	29.678 
05:35	57.2	57.2	57.2	52	39.7	3	10	248	0.00	29.678 
05:40	57.3	57.3	57.3	53	40.3	3	13	248	0.00	29.678 
05:45	57.2	57.2	57.2	53	40.2	2	5	248	0.00	29.681 
05:50	57.2	57.2	57.2	54	40.7	2	7	248	0.00	29.681 
05:55	57.5	57.5	57.5	54	41.0	3	10	248	0.00	29.681 
06:00	57.6	57.6	57.6	54	41.1	3	10	248	0.00	29.691 
06:05	57.8	57.8	57.8	54	41.3	4	15	248	0.00	29.691 
06:10	58.0	58.0	58.0	54	41.4	3	7	248	0.00	29.691 
06:15	58.0	58.0	58.0	55	41.9	3	7	248	0.00	29.692 
06:20	58.0	58.0	58.0	55	41.9	3	10	248	0.00	29.692 
06:25	58.0	58.0	58.0	56	42.4	5	13	248	0.00	29.692 
06:30	58.0	58.0	58.0	56	42.4	4	12	248	0.00	29.699 
06:35	57.8	57.8	57.8	57	42.7	4	12	248	0.00	29.699 
06:40	57.6	57.6	57.6	57	42.5	4	9	248	0.00	29.699 
06:45	57.5	57.5	57.5	58	42.8	4	10	248	0.00	29.706 
06:50	57.3	57.3	57.3	58	42.6	4	10	248	0.00	29.706 
06:55	57.2	57.2	57.2	59	43.0	4	11	270	0.00	29.706 
07:00	57.0	57.0	57.0	60	43.3	3	7	270	0.00	29.724 
07:05	56.7	56.7	56.7	60	43.0	4	10	270	0.00	29.724 
07:10	56.5	56.5	56.5	61	43.2	3	9	248	0.00	29.724 
07:15	56.2	56.2	56.2	62	43.4	4	11	270	0.00	29.740 
07:20	55.7	55.7	55.7	63	43.3	4	10	270	0.00	29.740 
07:25	55.4	55.4	55.4	65	43.8	5	10	270	0.00	29.740 
07:30	55.0	55.0	55.0	66	43.9	4	12	248	0.00	29.754 
07:35	54.5	54.5	54.5	68	44.2	4	10	248	0.00	29.754 
07:40	54.2	54.2	54.2	70	44.6	4	10	248	0.00	29.754 
07:45	53.8	53.8	53.8	71	44.6	4	9	248	0.00	29.766 
07:50	53.5	53.5	53.5	73	45.1	3	9	248	0.00	29.766 
07:55	53.3	53.3	53.3	73	44.9	3	10	248	0.00	29.766 
08:00	53.1	53.1	53.1	74	45.0	3	6	248	0.00	29.782 
08:05	52.9	52.9	52.9	75	45.2	2	6	248	0.00	29.782 
08:10	52.8	52.8	52.8	75	45.1	3	6	248	0.00	29.782 
08:15	52.6	52.6	52.6	76	45.3	4	9	270	0.00	29.790 
08:20	52.5	52.5	52.5	76	45.2	3	5	248	0.00	29.790 
08:25	52.5	52.5	52.5	76	45.2	4	10	248	0.00	29.790 
08:30	52.3	52.3	52.3	77	45.3	4	9	248	0.00	29.803 
08:35	52.3	52.3	52.3	77	45.3	3	9	248	0.00	29.803 
08:40	52.5	52.5	52.5	77	45.5	4	6	248	0.00	29.803 
08:45	52.6	52.6	52.6	77	45.6	3	7	248	0.00	29.805 
08:50	52.5	52.5	52.5	76	45.2	3	8	248	0.00	29.805 
08:55	52.3	52.3	52.3	76	45.0	3	7	248	0.00	29.805 
09:00	52.3	52.3	52.3	75	44.6	4	7	248	0.00	29.807 
09:05	52.6	52.6	52.6	75	44.9	3	6	248	0.00	29.807 
09:10	52.6	52.6	52.6	74	44.6	3	7	270	0.00	29.807 
09:15	52.8	52.8	52.8	74	44.7	4	8	248	0.00	29.809 
09:20	52.8	52.8	52.8	73	44.4	4	10	248	0.00	29.809 
09:25	52.5	52.5	52.5	73	44.1	4	7	248	0.00	29.809 
09:30	52.2	52.2	52.2	74	44.2	4	9	248	0.00	29.816 
09:35	51.9	51.9	51.9	74	43.9	3	6	248	0.00	29.816 
09:40	51.7	51.7	51.7	75	44.0	3	6	248	0.00	29.816 
09:45	51.9	51.9	51.9	75	44.2	2	6	248	0.00	29.823 
09:50	52.0	52.0	52.0	75	44.3	3	6	248	0.00	29.823 
09:55	52.2	52.2	52.2	74	44.2	3	9	270	0.00	29.823 
10:00	52.5	52.5	52.5	74	44.5	2	5	270	0.00	29.824 
10:05	52.6	52.6	52.6	73	44.2	3	6	248	0.00	29.824 
10:10	52.8	52.8	52.8	73	44.4	3	6	248	0.00	29.824 
10:15	52.8	52.8	52.8	72	44.0	3	5	248	0.00	29.830 
10:20	52.6	52.6	52.6	72	43.8	3	10	248	0.00	29.830 
10:25	52.3	52.3	52.3	72	43.5	3	7	270	0.00	29.830 
10:30	52.3	52.3	52.3	73	43.9	2	6	248	0.00	29.840 
10:35	52.3	52.3	52.3	73	43.9	2	6	248	0.00	29.840 
10:40	52.5	52.5	52.5	74	44.5	2	4	248	0.00	29.840 
10:45	52.6	52.6	52.6	73	44.2	2	6	248	0.00	29.843 
10:50	52.3	52.3	52.3	71	43.2	4	7	248	0.00	29.843 
10:55	52.2	52.2	52.2	72	43.4	2	5	270	0.00	29.843 
11:00	52.2	52.2	52.2	71	43.1	3	5	270	0.00	29.855 
11:05	52.0	52.0	52.0	70	42.5	3	5	270	0.01	29.855 
11:10	51.9	51.9	51.9	70	42.4	3	6	292	0.00	29.855 
11:15	52.0	52.0	52.0	70	42.5	3	5	248	0.00	29.856 
11:20	52.6	52.6	52.6	70	43.1	2	5	248	0.00	29.856 
11:25	53.3	53.3	53.3	69	43.4	2	7	270	0.00	29.856 
11:30	53.2	53.2	53.2	67	42.5	3	6	270	0.00	29.857 
11:35	53.1	53.1	53.1	67	42.4	3	7	270	0.00	29.857 
11:40	53.2	53.2	53.2	66	42.1	2	6	270	0.00	29.857 
11:45	53.8	53.8	53.8	67	43.1	3	7	248	0.00	29.868 
11:50	54.2	54.2	54.2	66	43.1	3	7	270	0.00	29.868 
11:55	54.4	54.4	54.4	63	42.1	2	5	315	0.00	29.868 
12:00	54.8	54.8	54.8	65	43.3	2	5	248	0.00	29.869 
12:05	55.1	55.1	55.1	60	41.5	3	5	248	0.00	29.869 
12:10	55.1	55.1	55.1	62	42.3	2	4	270	0.00	29.869 
12:15	56.0	56.0	56.0	60	42.3	3	9	248	0.00	29.873 
12:20	56.6	56.6	56.6	59	42.4	3	5	248	0.00	29.873 
12:25	56.9	56.9	56.9	57	41.8	3	5	248	0.00	29.873 
12:30	56.9	56.9	56.9	56	41.4	3	9	292	0.00	29.877 
12:35	57.2	57.2	57.2	56	41.6	2	5	292	0.00	29.877 
12:40	57.5	57.5	57.5	57	42.4	3	6	248	0.00	29.877 
12:45	57.6	57.6	57.6	55	41.6	4	8	270	0.00	29.880 
12:50	57.0	57.0	57.0	56	41.5	3	6	270	0.00	29.880 
12:55	57.0	57.0	57.0	58	42.4	3	6	270	0.00	29.880 
13:00	57.8	57.8	57.8	56	42.2	2	5	248	0.00	29.880 
13:05	58.1	58.1	58.1	57	42.9	2	5	225	0.00	29.880 
13:10	58.6	58.6	58.6	55	42.5	2	5	248	0.00	29.880 
13:15	59.2	59.2	59.2	54	42.6	3	6	248	0.00	29.879 
13:20	59.8	59.8	59.8	53	42.6	2	8	270	0.00	29.879 
13:25	60.1	60.1	60.1	51	41.9	2	7	248	0.00	29.879 
13:30	60.7	60.7	60.7	52	43.0	2	6	248	0.00	29.879 
13:35	60.4	60.4	60.4	51	42.2	2	6	270	0.00	29.879 
13:40	60.2	60.2	60.2	52	42.5	2	6	248	0.00	29.879 
13:45	60.7	60.7	60.7	50	41.9	2	6	270	0.00	29.880 
13:50	61.2	61.2	61.2	50	42.4	2	6	248	0.00	29.880 
13:55	61.0	61.0	61.0	49	41.7	2	7	248	0.00	29.880 
14:00	61.2	61.2	61.2	50	42.4	3	6	248	0.00	29.879 
14:05	61.3	61.3	61.3	47	40.9	3	7	248	0.00	29.879 
14:10	61.5	61.5	61.5	47	41.1	3	10	270	0.00	29.879 
14:15	61.6	61.6	61.6	48	41.7	2	4	225	0.00	29.883 
14:20	62.3	62.3	62.3	46	41.3	3	7	248	0.00	29.883 
14:25	62.6	62.6	62.6	47	42.1	3	5	270	0.00	29.883 
14:30	62.9	62.9	62.9	45	41.2	3	6	248	0.00	29.881 
14:35	63.4	63.4	63.4	44	41.1	3	7	248	0.00	29.881 
14:40	63.5	63.5	63.5	45	41.8	3	5	248	0.00	29.881 
14:45	63.5	63.5	63.5	45	41.8	3	5	270	0.00	29.887 
14:50	63.5	63.5	63.5	45	41.8	2	5	248	0.00	29.887 
14:55	63.9	63.9	63.9	44	41.6	2	7	248	0.00	29.887 
15:00	64.5	64.5	64.5	45	42.7	2	5	248	0.00	29.888 
15:05	64.8	64.8	64.8	42	41.2	2	5	248	0.00	29.888 
15:10	65.0	65.0	65.0	40	40.1	3	9	248	0.00	29.888 
15:15	65.0	65.0	65.0	40	40.1	3	9	248	0.00	29.892 
15:20	65.2	65.2	65.2	41	40.9	3	7	248	0.00	29.892 
15:25	65.0	65.0	65.0	40	40.1	3	5	248	0.00	29.892 
15:30	64.8	64.8	64.8	40	39.9	3	6	270	0.00	29.892 
15:35	64.5	64.5	64.5	40	39.6	3	6	338	0.00	29.892 
15:40	64.5	64.5	64.5	39	39.0	3	6	292	0.00	29.892 
15:45	64.3	64.3	64.3	40	39.5	3	12	338	0.00	29.895 
15:50	64.5	64.5	64.5	38	38.3	3	7	315	0.00	29.895 
15:55	64.8	64.8	64.8	37	37.9	3	7	248	0.00	29.895 
16:00	64.8	64.8	64.8	36	37.2	3	6	270	0.00	29.894 
16:05	65.3	65.3	65.3	36	37.7	3	5	248	0.00	29.894 
16:10	65.6	65.6	65.6	35	37.2	2	7	270	0.00	29.894 
16:15	65.5	65.5	65.5	36	37.8	2	4	292	0.00	29.896 
16:20	65.5	65.5	65.5	35	37.1	3	6	270	0.00	29.896 
16:25	65.5	65.5	65.5	34	36.4	3	9	248	0.00	29.896 
16:30	65.0	65.0	65.0	35	36.7	2	6	248	0.00	29.895 
16:35	64.8	64.8	64.8	35	36.5	2	5	248	0.00	29.895 
16:40	64.7	64.7	64.7	36	37.1	2	4	248	0.00	29.895 
16:45	64.7	64.7	64.7	36	37.1	2	4	248	0.00	29.902 
16:50	64.7	64.7	64.7	36	37.1	2	4	248	0.00	29.902 
16:55	64.7	64.7	64.7	37	37.8	2	5	248	0.00	29.902 
17:00	64.5	64.5	64.5	37	37.6	2	3	248	0.00	29.908 
17:05	64.8	64.8	64.8	38	38.6	1	5	270	0.00	29.908 
17:10	65.3	65.3	65.3	36	37.7	1	3	248	0.00	29.908 
17:15	64.8	64.8	64.8	35	36.5	2	5	248	0.00	29.910 
17:20	64.7	64.7	64.7	36	37.1	2	4	225	0.00	29.910 
17:25	64.7	64.7	64.7	35	36.4	2	5	248	0.00	29.910 
17:30	64.5	64.5	64.5	35	36.2	1	3	270	0.00	29.912 
17:35	64.3	64.3	64.3	35	36.1	1	4	248	0.00	29.912 
17:40	64.5	64.5	64.5	35	36.2	2	5	248	0.00	29.912 
17:45	64.3	64.3	64.3	36	36.8	1	3	248	0.00	29.916 
17:50	64.5	64.5	64.5	36	36.9	1	3	248	0.00	29.916 
17:55	64.3	64.3	64.3	37	37.5	1	3	248	0.00	29.916 
18:00	64.2	64.2	64.2	36	36.7	1	4	248	0.00	29.921 
18:05	63.9	63.9	63.9	35	35.7	1	4	248	0.00	29.921 
18:10	63.7	63.7	63.7	36	36.2	1	3	248	0.00	29.921 
18:15	63.5	63.5	63.5	37	36.8	1	2	292	0.00	29.925 
18:20	63.4	63.4	63.4	39	38.0	1	3	270	0.00	29.925 
18:25	63.2	63.2	63.2	40	38.5	1	2	292	0.00	29.925 
18:30	63.1	63.1	63.1	41	39.0	1	2	338	0.00	29.927 
18:35	63.1	63.1	63.1	41	39.0	1	3	338	0.00	29.927 
18:40	62.9	62.9	62.9	40	38.2	1	2	338	0.00	29.927 
18:45	62.9	62.9	62.9	41	38.8	1	3	338	0.00	29.930 
18:50	62.7	62.7	62.7	41	38.7	0	2	338	0.00	29.930 
18:55	62.4	62.4	62.4	42	39.0	0	2	338	0.00	29.930 
19:00	62.1	62.1	62.1	43	39.3	0	1	338	0.00	29.932 
19:05	62.0	62.0	62.0	43	39.2	0	1	338	0.00	29.932 
19:10	61.6	61.6	61.6	43	38.9	0	2	338	0.00	29.932 
19:15	61.3	61.3	61.3	44	39.2	0	1	338	0.00	29.936 
19:20	60.9	60.9	60.9	43	38.3	0	3	338	0.00	29.936 
19:25	60.7	60.7	60.7	43	38.1	1	3	338	0.00	29.936 
19:30	60.5	60.5	60.5	43	37.9	0	2	338	0.00	29.938 
19:35	60.4	60.4	60.4	43	37.8	0	2	338	0.00	29.938 
19:40	60.1	60.1	60.1	43	37.5	0	1	338	0.00	29.938 
19:45	59.8	59.8	59.8	43	37.3	0	1	338	0.00	29.944 
19:50	59.3	59.3	59.3	44	37.4	0	2	338	0.00	29.944 
19:55	58.9	58.9	58.9	44	37.0	0	1	338	0.00	29.944 
20:00	58.6	58.6	58.6	44	36.8	0	1	338	0.00	29.946 
20:05	58.1	58.1	58.1	45	36.9	0	0	---	0.00	29.946 
20:10	57.6	57.6	57.6	45	36.4	0	0	---	0.00	29.946 
20:15	57.3	57.3	57.3	46	36.7	0	0	---	0.00	29.947 
20:20	56.9	56.9	56.9	46	36.3	0	0	---	0.00	29.947 
20:25	56.5	56.5	56.5	47	36.5	0	0	---	0.00	29.947 
20:30	56.0	56.0	56.0	48	36.6	0	0	---	0.00	29.947 
20:35	55.6	55.6	55.6	48	36.2	0	0	---	0.00	29.947 
20:40	55.1	55.1	55.1	49	36.3	0	1	338	0.00	29.947 
20:45	54.7	54.7	54.7	50	36.4	0	0	---	0.00	29.949 
20:50	54.2	54.2	54.2	50	36.0	0	0	---	0.00	29.949 
20:55	53.8	53.8	53.8	51	36.1	0	0	---	0.00	29.949 
21:00	53.3	53.3	53.3	51	35.6	0	0	---	0.00	29.953 
21:05	53.1	53.1	53.1	52	35.9	0	0	---	0.00	29.953 
21:10	52.6	52.6	52.6	53	36.0	0	0	---	0.00	29.953 
21:15	52.2	52.2	52.2	54	36.1	0	0	---	0.00	29.958 
21:20	51.9	51.9	51.9	54	35.8	0	0	---	0.00	29.958 
21:25	51.4	51.4	51.4	55	35.8	0	0	---	0.00	29.958 
21:30	51.3	51.3	51.3	56	36.1	0	0	---	0.00	29.962 
21:35	51.1	51.1	51.1	56	36.0	0	0	---	0.00	29.962 
21:40	51.0	51.0	51.0	56	35.9	0	0	---	0.00	29.962 
21:45	50.8	50.8	50.8	56	35.7	0	0	---	0.00	29.968 
21:50	50.7	50.7	50.7	56	35.6	0	0	---	0.00	29.968 
21:55	50.7	50.7	50.7	57	36.0	0	0	---	0.00	29.968 
22:00	50.5	50.5	50.5	57	35.8	0	0	---	0.00	29.971 
22:05	50.4	50.4	50.4	57	35.7	0	0	---	0.00	29.971 
22:10	50.2	50.2	50.2	57	35.6	0	0	---	0.00	29.971 
22:15	50.2	50.2	50.2	56	35.1	0	1	338	0.00	29.974 
22:20	50.4	50.4	50.4	56	35.3	0	2	338	0.00	29.974 
22:25	50.4	50.4	50.4	56	35.3	0	1	338	0.00	29.974 
22:30	50.4	50.4	50.4	55	34.8	0	1	338	0.00	29.978 
22:35	50.4	50.4	50.4	55	34.8	0	1	338	0.00	29.978 
22:40	50.4	50.4	50.4	55	34.8	0	1	338	0.00	29.978 
22:45	50.1	50.1	50.1	56	35.0	0	0	---	0.00	29.976 
22:50	49.8	49.8	49.8	56	34.7	0	1	338	0.00	29.976 
22:55	49.5	49.5	49.5	57	34.9	0	0	---	0.00	29.976 
23:00	49.2	49.2	49.2	57	34.6	0	0	---	0.00	29.976 
23:05	48.9	48.9	48.9	58	34.8	0	1	338	0.00	29.976 
23:10	48.8	48.8	48.8	58	34.7	0	2	338	0.00	29.976 
23:15	48.6	48.6	48.6	58	34.5	0	1	338	0.00	29.974 
23:20	48.6	48.6	48.6	58	34.5	0	1	338	0.00	29.974 
23:25	48.5	48.5	48.5	58	34.4	0	1	338	0.00	29.974 
23:30	48.2	48.2	48.2	59	34.6	0	2	338	0.00	29.977 
23:35	48.0	48.0	48.0	59	34.4	0	3	338	0.00	29.977 
23:40	47.9	47.9	47.9	60	34.7	0	3	45	0.00	29.977 
23:45	47.9	47.9	47.9	59	34.3	1	3	45	0.00	29.979 
23:50	47.7	47.7	47.7	60	34.5	0	2	45	0.00	29.979 
23:55	47.6	47.6	47.6	60	34.4	0	1	45	0.00	29.979 

CoCoRaHS
IN-AL-39
A2 Web Hosting
Creative Commons License
GoDaddy
search engine by freefind advanced

loaded 2018-11-19 18:46:57 • last modified 2010-11-18 10:43:29
Privacy PolicyDisclaimer
• wx.awcolley.com is powered by PmWiki v.2002016 •
• all content (unless otherwise noted) © 2018 A W Colley